KAUO/AUO METAR and TAF weather

Enter ICAO airport designator
Station Type Date Time Source
KAUO METAR 2024/06/16 07:56 UTC NOAA

KAUO 160756Z AUTO 07003KT 10SM CLR 24/22 A3001 RMK AO2 SLP150 T02440222


Station Type Date Time Source
KAUO Decoded METAR 2024/06/16 07:56 UTC NOAA

Auburn-Opelika Airport, AL, United States (KAUO) 32-37N 085-26W
Jun 16, 2024 - 03:56 AM EDT / 2024.06.16 0756 UTC
Wind: from the ENE (070 degrees) at 3 MPH (3 KT):0
Visibility: 10 mile(s):0
Sky conditions: clear
Temperature: 75.9 F (24.4 C)
Dew Point: 72.0 F (22.2 C)
Relative Humidity: 87%
Pressure (altimeter): 30.01 in. Hg (1016 hPa)
ob: KAUO 160756Z AUTO 07003KT 10SM CLR 24/22 A3001 RMK AO2 SLP150 T02440222
cycle: 8

Station Type Date Time Source
KAUO TAF UTC NOAA

Error!

Example: see airport list